createdAt,value
2024-05-09T00:02:05.342Z,3.22
2024-05-09T00:05:08.163Z,3.20
2024-05-09T00:08:18.951Z,2.90
2024-05-09T00:11:21.320Z,2.83
2024-05-09T00:14:23.369Z,2.80
2024-05-09T00:17:25.536Z,3.05
2024-05-09T00:20:35.967Z,2.67
2024-05-09T00:23:45.481Z,2.60
2024-05-09T00:26:47.436Z,2.93
2024-05-09T00:29:49.343Z,2.90
2024-05-09T00:32:51.659Z,2.85
2024-05-09T00:35:53.806Z,2.83
2024-05-09T00:38:55.640Z,2.90
2024-05-09T00:41:57.578Z,2.67
2024-05-09T00:44:59.440Z,2.67
2024-05-09T00:48:02.985Z,2.95
2024-05-09T00:51:05.748Z,3.00
2024-05-09T00:54:07.624Z,3.00
2024-05-09T00:57:09.554Z,2.80
2024-05-09T01:00:22.438Z,3.08
2024-05-09T01:03:32.768Z,3.22
2024-05-09T01:06:34.905Z,3.45
2024-05-09T01:09:36.880Z,3.77
2024-05-09T01:12:39.111Z,3.40
2024-05-09T01:15:41.131Z,2.88
2024-05-09T01:18:43.267Z,2.80
2024-05-09T01:21:45.248Z,3.10
2024-05-09T01:24:50.706Z,3.37
2024-05-09T01:27:52.654Z,2.80
2024-05-09T01:30:54.636Z,3.33
2024-05-09T01:33:56.687Z,3.00
2024-05-09T01:36:58.710Z,3.13
2024-05-09T01:40:00.592Z,3.13
2024-05-09T01:43:02.506Z,3.30
2024-05-09T01:46:04.541Z,3.83
2024-05-09T01:49:06.563Z,3.35
2024-05-09T01:52:08.636Z,3.10
2024-05-09T01:55:14.377Z,3.33
2024-05-09T01:58:16.455Z,3.27
2024-05-09T02:01:18.290Z,3.10
2024-05-09T02:04:20.447Z,3.20
2024-05-09T02:07:22.515Z,3.60
2024-05-09T02:10:32.536Z,3.30
2024-05-09T02:13:35.254Z,2.90
2024-05-09T02:16:37.162Z,3.08
2024-05-09T02:19:39.169Z,2.95
2024-05-09T02:22:41.089Z,3.17
2024-05-09T02:25:46.143Z,3.10
2024-05-09T02:28:48.158Z,2.63
2024-05-09T02:31:50.103Z,3.08
2024-05-09T02:34:52.170Z,3.17
2024-05-09T02:37:54.144Z,3.40
2024-05-09T02:40:59.232Z,3.80
2024-05-09T02:44:01.141Z,3.37
2024-05-09T02:47:03.159Z,3.45
2024-05-09T02:50:07.795Z,3.13
2024-05-09T02:53:13.851Z,3.67
2024-05-09T02:56:20.573Z,3.23
2024-05-09T02:59:22.676Z,3.50
2024-05-09T03:02:24.797Z,3.42
2024-05-09T03:05:26.851Z,3.53
2024-05-09T03:08:28.977Z,3.35
2024-05-09T03:11:34.632Z,3.83
2024-05-09T03:14:36.623Z,3.47
2024-05-09T03:17:40.718Z,3.50
2024-05-09T03:20:44.824Z,3.90
2024-05-09T03:23:47.037Z,4.10
2024-05-09T03:26:52.226Z,4.07
2024-05-09T03:29:54.189Z,3.83
2024-05-09T03:32:56.258Z,4.13
2024-05-09T03:35:58.203Z,3.30
2024-05-09T03:39:00.120Z,4.00
2024-05-09T03:42:06.300Z,4.53
2024-05-09T03:45:08.355Z,3.80
2024-05-09T03:48:10.566Z,4.45
2024-05-09T03:51:12.613Z,4.28
2024-05-09T03:54:14.760Z,4.28
2024-05-09T03:57:20.587Z,4.23
2024-05-09T04:00:30.982Z,3.83
2024-05-09T04:03:39.873Z,4.53
2024-05-09T04:06:43.440Z,3.90
2024-05-09T04:09:45.269Z,3.83
2024-05-09T04:12:50.043Z,3.30
2024-05-09T04:15:51.904Z,3.47
2024-05-09T04:18:58.433Z,3.80
2024-05-09T04:22:00.424Z,3.65
2024-05-09T04:25:02.388Z,3.70
2024-05-09T04:28:08.551Z,3.97
2024-05-09T04:31:10.496Z,3.50
2024-05-09T04:34:12.712Z,4.15
2024-05-09T04:37:14.944Z,4.25
2024-05-09T04:40:24.350Z,3.75
2024-05-09T04:43:38.822Z,4.23
2024-05-09T04:46:40.692Z,4.07
2024-05-09T04:49:42.671Z,3.85
2024-05-09T04:52:44.703Z,4.15
2024-05-09T04:55:46.815Z,3.78
2024-05-09T04:58:49.840Z,3.73
2024-05-09T05:01:51.832Z,4.30
2024-05-09T05:04:54.070Z,4.18
2024-05-09T05:07:56.241Z,3.70
2024-05-09T05:10:58.488Z,4.13
2024-05-09T05:14:00.576Z,4.77
2024-05-09T05:17:02.501Z,4.40
2024-05-09T05:20:05.880Z,4.50
2024-05-09T05:23:11.479Z,4.32
2024-05-09T05:26:13.591Z,4.18
2024-05-09T05:29:18.516Z,4.03
2024-05-09T05:32:21.526Z,4.30
2024-05-09T05:35:26.423Z,4.07
2024-05-09T05:38:28.894Z,4.00
2024-05-09T05:41:31.094Z,4.25
2024-05-09T05:44:33.443Z,4.27
2024-05-09T05:47:37.074Z,3.73
2024-05-09T05:50:42.915Z,4.00
2024-05-09T05:53:45.101Z,4.57
2024-05-09T05:56:47.160Z,4.30
2024-05-09T05:59:49.168Z,3.90
2024-05-09T06:02:51.147Z,3.57
2024-05-09T06:05:53.249Z,2.90
2024-05-09T06:08:55.220Z,2.92
2024-05-09T06:11:57.235Z,2.65
2024-05-09T06:15:00.668Z,3.10
2024-05-09T06:18:05.943Z,2.27
2024-05-09T06:21:08.258Z,2.00
2024-05-09T06:24:10.119Z,2.22
2024-05-09T06:27:12.062Z,2.13
2024-05-09T06:30:24.930Z,1.77
2024-05-09T06:33:32.036Z,2.10
2024-05-09T06:36:34.101Z,2.17
2024-05-09T06:39:36.156Z,1.92
2024-05-09T06:42:38.001Z,1.60
2024-05-09T06:45:40.414Z,2.10
2024-05-09T06:48:43.341Z,1.70
2024-05-09T06:51:45.411Z,2.30
2024-05-09T06:54:47.310Z,1.83
2024-05-09T06:57:49.324Z,1.50
2024-05-09T07:00:51.551Z,1.80
2024-05-09T07:03:53.589Z,1.83
2024-05-09T07:06:55.571Z,1.90
2024-05-09T07:09:57.429Z,1.73
2024-05-09T07:13:02.514Z,1.35
2024-05-09T07:16:04.801Z,1.80
2024-05-09T07:19:07.269Z,1.83
2024-05-09T07:22:09.388Z,1.70
2024-05-09T07:25:11.309Z,2.05
2024-05-09T07:28:17.325Z,1.88
2024-05-09T07:31:19.270Z,1.87
2024-05-09T07:34:21.849Z,1.70
2024-05-09T07:37:23.954Z,1.65
2024-05-09T07:40:33.126Z,2.08
2024-05-09T07:43:38.590Z,1.70
2024-05-09T07:47:47.749Z,1.60
2024-05-09T07:51:54.744Z,1.43
2024-05-09T07:56:30.181Z,1.85
2024-05-09T07:59:37.645Z,2.15
2024-05-09T08:02:39.973Z,1.77
2024-05-09T08:05:42.266Z,1.67
2024-05-09T08:08:46.772Z,2.03
2024-05-09T08:11:51.035Z,1.77
2024-05-09T08:14:54.774Z,1.65
2024-05-09T08:17:57.159Z,1.80
2024-05-09T08:20:59.892Z,1.60
2024-05-09T08:24:02.011Z,1.58
2024-05-09T08:27:04.040Z,1.50
2024-05-09T08:30:10.100Z,1.83
2024-05-09T08:33:12.379Z,2.17
2024-05-09T08:36:15.146Z,1.60
2024-05-09T08:39:17.903Z,1.75
2024-05-09T08:42:19.900Z,1.83
2024-05-09T08:45:22.293Z,1.85
2024-05-09T08:48:24.918Z,1.70
2024-05-09T08:51:27.599Z,1.57
2024-05-09T08:54:30.553Z,2.03
2024-05-09T08:57:32.457Z,1.80
2024-05-09T09:00:37.278Z,2.00
2024-05-09T09:03:40.465Z,1.90
2024-05-09T09:06:42.591Z,2.07
2024-05-09T09:09:45.313Z,1.83
2024-05-09T09:12:55.031Z,2.22
2024-05-09T09:16:00.372Z,1.40
2024-05-09T09:19:05.397Z,2.00
2024-05-09T09:22:07.529Z,1.70
2024-05-09T09:25:09.716Z,1.90
2024-05-09T09:28:12.789Z,2.58
2024-05-09T09:31:21.183Z,2.00
2024-05-09T09:34:28.070Z,2.07
2024-05-09T09:37:30.533Z,2.33
2024-05-09T09:40:40.800Z,1.90
2024-05-09T09:43:47.005Z,2.55
2024-05-09T09:46:50.305Z,2.72
2024-05-09T09:49:52.377Z,1.80
2024-05-09T09:52:54.498Z,2.03
2024-05-09T09:55:56.450Z,2.13
2024-05-09T09:58:58.300Z,1.83
2024-05-09T10:02:00.600Z,1.60
2024-05-09T10:05:02.938Z,2.00
2024-05-09T10:08:06.692Z,2.13
2024-05-09T10:11:08.656Z,1.90
2024-05-09T10:14:10.674Z,2.15
2024-05-09T10:17:12.818Z,2.05
2024-05-09T10:20:21.615Z,1.80
2024-05-09T10:23:32.642Z,1.70
2024-05-09T10:26:38.384Z,2.00
2024-05-09T10:29:50.955Z,1.92
2024-05-09T10:32:54.816Z,2.30
2024-05-09T10:35:56.748Z,1.90
2024-05-09T10:38:58.632Z,2.10
2024-05-09T10:42:00.610Z,1.80
2024-05-09T10:45:02.610Z,2.10
2024-05-09T10:48:05.120Z,1.88
2024-05-09T10:51:08.043Z,2.10
2024-05-09T10:54:09.941Z,1.60
2024-05-09T10:57:12.385Z,2.05
2024-05-09T11:00:23.242Z,2.05
2024-05-09T11:03:32.280Z,1.77
2024-05-09T11:06:36.317Z,1.67
2024-05-09T11:09:38.758Z,1.80
2024-05-09T11:12:46.056Z,1.75
2024-05-09T11:15:48.053Z,1.80
2024-05-09T11:18:55.356Z,2.03
2024-05-09T11:22:01.952Z,2.10
2024-05-09T11:25:04.725Z,2.00
2024-05-09T11:28:07.434Z,2.53
2024-05-09T11:31:10.547Z,2.17
2024-05-09T11:34:13.265Z,1.70
2024-05-09T11:37:15.363Z,2.10
2024-05-09T11:40:24.929Z,1.77
2024-05-09T11:43:30.405Z,2.10
2024-05-09T11:46:32.443Z,1.70
2024-05-09T11:49:38.732Z,1.75
2024-05-09T11:52:44.008Z,2.10
2024-05-09T11:55:46.337Z,2.07
2024-05-09T11:58:48.365Z,2.17
2024-05-09T12:01:50.489Z,1.55
2024-05-09T12:04:55.957Z,1.42
2024-05-09T12:07:58.091Z,1.73
2024-05-09T12:11:00.941Z,1.87
2024-05-09T12:14:03.076Z,1.90
2024-05-09T12:17:05.858Z,1.65
2024-05-09T12:20:14.284Z,1.70
2024-05-09T12:23:23.133Z,1.57
2024-05-09T12:26:25.120Z,1.70
2024-05-09T12:29:27.348Z,1.58
2024-05-09T12:32:29.430Z,1.50
2024-05-09T12:35:31.488Z,1.40
2024-05-09T12:38:33.481Z,1.73
2024-05-09T12:41:35.822Z,1.30
2024-05-09T12:44:37.691Z,1.27
2024-05-09T12:47:39.655Z,1.13
2024-05-09T12:50:42.075Z,1.30
2024-05-09T12:53:44.225Z,1.30
2024-05-09T12:56:46.198Z,1.20
2024-05-09T12:59:48.331Z,1.20
2024-05-09T13:02:50.244Z,1.50
2024-05-09T13:05:56.860Z,1.00
2024-05-09T13:08:58.768Z,1.80
2024-05-09T13:12:00.777Z,1.47
2024-05-09T13:15:02.687Z,1.08
2024-05-09T13:18:05.164Z,1.20
2024-05-09T13:21:11.068Z,1.02
2024-05-09T13:24:13.201Z,1.50
2024-05-09T13:27:15.139Z,1.40
2024-05-09T13:30:25.905Z,1.50
2024-05-09T13:33:33.064Z,1.17
2024-05-09T13:36:38.804Z,0.90
2024-05-09T13:39:40.797Z,1.10
2024-05-09T13:42:43.920Z,1.40
2024-05-09T13:45:46.829Z,1.15
2024-05-09T13:48:49.047Z,1.15
2024-05-09T13:51:51.205Z,1.20
2024-05-09T13:54:53.329Z,1.27
2024-05-09T13:57:55.640Z,0.80
2024-05-09T14:00:58.504Z,1.13
2024-05-09T14:04:00.588Z,1.35
2024-05-09T14:07:06.848Z,1.10
2024-05-09T14:10:19.460Z,1.57
2024-05-09T14:13:25.009Z,1.20
2024-05-09T14:16:27.258Z,1.73
2024-05-09T14:19:29.242Z,1.20
2024-05-09T14:22:31.105Z,1.00
2024-05-09T14:25:36.773Z,1.33
2024-05-09T14:28:40.946Z,1.20
2024-05-09T14:31:43.106Z,1.40
2024-05-09T14:34:45.849Z,1.48
2024-05-09T14:37:52.000Z,1.17
2024-05-09T14:40:54.004Z,1.47
2024-05-09T14:43:56.079Z,1.20
2024-05-09T14:46:57.986Z,1.10
2024-05-09T14:50:00.976Z,1.50
2024-05-09T14:53:02.910Z,1.25
2024-05-09T14:56:05.212Z,1.47
2024-05-09T14:59:08.528Z,1.40
2024-05-09T15:02:11.002Z,1.30
2024-05-09T15:05:13.222Z,1.05
2024-05-09T15:08:18.960Z,1.20
2024-05-09T15:11:21.087Z,1.40
2024-05-09T15:14:23.515Z,0.97
2024-05-09T15:17:25.461Z,1.20
2024-05-09T15:20:34.226Z,0.95
2024-05-09T15:23:38.334Z,1.20
2024-05-09T15:26:40.212Z,1.30
2024-05-09T15:29:42.072Z,0.93
2024-05-09T15:32:44.043Z,1.30
2024-05-09T15:35:47.262Z,1.40
2024-05-09T15:38:52.797Z,1.08
2024-05-09T15:41:56.556Z,1.30
2024-05-09T15:44:58.586Z,1.20
2024-05-09T15:48:00.737Z,1.25
2024-05-09T15:51:02.805Z,1.40
2024-05-09T15:54:05.741Z,1.38
2024-05-09T15:57:08.082Z,1.47
2024-05-09T16:00:18.289Z,1.20
2024-05-09T16:03:27.145Z,1.30
2024-05-09T16:06:29.175Z,1.35
2024-05-09T16:09:34.465Z,1.33
2024-05-09T16:12:36.415Z,1.33
2024-05-09T16:15:38.594Z,1.43
2024-05-09T16:18:40.827Z,0.90
2024-05-09T16:21:42.807Z,1.40
2024-05-09T16:24:44.700Z,1.40
2024-05-09T16:27:49.590Z,1.37
2024-05-09T16:30:51.651Z,1.10
2024-05-09T16:33:53.769Z,1.20
2024-05-09T16:36:55.756Z,1.08
2024-05-09T16:40:01.797Z,1.33
2024-05-09T16:43:04.420Z,1.60
2024-05-09T16:46:06.697Z,1.20
2024-05-09T16:49:09.329Z,1.40
2024-05-09T16:52:11.331Z,1.38
2024-05-09T16:55:13.407Z,1.30
2024-05-09T16:58:15.367Z,1.23
2024-05-09T17:01:17.354Z,1.30
2024-05-09T17:04:19.556Z,1.10
2024-05-09T17:07:21.597Z,1.05
2024-05-09T17:10:32.849Z,1.20
2024-05-09T17:13:39.396Z,1.20
2024-05-09T17:16:41.409Z,1.00
2024-05-09T17:19:45.015Z,1.20
2024-05-09T17:22:47.020Z,1.30
2024-05-09T17:25:48.953Z,1.25
2024-05-09T17:28:50.878Z,1.30
2024-05-09T17:31:52.916Z,1.10
2024-05-09T17:34:54.833Z,1.00
2024-05-09T17:37:56.832Z,1.20
2024-05-09T17:40:59.090Z,1.20
2024-05-09T17:44:03.440Z,1.20
2024-05-09T17:47:05.420Z,1.00
2024-05-09T17:50:11.647Z,1.20
2024-05-09T17:53:16.923Z,0.90
2024-05-09T17:56:18.833Z,0.98
2024-05-09T17:59:20.743Z,1.00
2024-05-09T18:02:23.064Z,0.90
2024-05-09T18:05:25.326Z,1.10
2024-05-09T18:08:27.383Z,1.73
2024-05-09T18:11:33.346Z,1.00
2024-05-09T18:14:35.235Z,1.17
2024-05-09T18:17:37.394Z,1.20
2024-05-09T18:20:44.033Z,1.20
2024-05-09T18:23:47.993Z,1.42
2024-05-09T18:26:49.926Z,1.40
2024-05-09T18:29:51.832Z,1.77
2024-05-09T18:32:53.795Z,1.60
2024-05-09T18:35:55.881Z,1.23
2024-05-09T18:38:57.771Z,1.65
2024-05-09T18:42:05.027Z,1.38
2024-05-09T18:45:07.194Z,1.50
2024-05-09T18:48:10.370Z,1.60
2024-05-09T18:51:12.388Z,1.50
2024-05-09T18:54:15.187Z,1.33
2024-05-09T18:57:17.429Z,1.40
2024-05-09T19:00:31.055Z,1.80
2024-05-09T19:03:37.779Z,1.20
2024-05-09T19:06:41.024Z,1.13
2024-05-09T19:09:43.050Z,1.52
2024-05-09T19:12:49.431Z,1.27
2024-05-09T19:15:51.356Z,1.60
2024-05-09T19:18:54.061Z,1.33
2024-05-09T19:21:59.255Z,1.30
2024-05-09T19:25:01.430Z,1.20
2024-05-09T19:28:04.024Z,1.65
2024-05-09T19:31:06.244Z,1.17
2024-05-09T19:34:08.226Z,1.20
2024-05-09T19:37:10.262Z,1.50
2024-05-09T19:40:20.862Z,1.50
2024-05-09T19:43:36.118Z,1.25
2024-05-09T19:46:38.260Z,1.37
2024-05-09T19:49:40.510Z,1.63
2024-05-09T19:52:42.560Z,1.33
2024-05-09T19:55:44.520Z,1.38
2024-05-09T19:58:47.575Z,1.33
2024-05-09T20:01:49.770Z,1.67
2024-05-09T20:04:51.881Z,1.70
2024-05-09T20:07:53.811Z,1.67
2024-05-09T20:10:56.213Z,1.70
2024-05-09T20:14:01.999Z,1.77
2024-05-09T20:17:03.994Z,1.60
2024-05-09T20:20:11.330Z,1.50
2024-05-09T20:23:18.284Z,1.42
2024-05-09T20:26:20.257Z,1.42
2024-05-09T20:29:25.043Z,1.70
2024-05-09T20:32:27.199Z,1.63
2024-05-09T20:35:32.058Z,1.43
2024-05-09T20:38:34.291Z,1.40
2024-05-09T20:41:37.144Z,1.25
2024-05-09T20:44:42.667Z,1.30
2024-05-09T20:47:44.640Z,1.33
2024-05-09T20:50:46.811Z,1.37
2024-05-09T20:53:48.741Z,1.48
2024-05-09T20:56:50.614Z,1.60
2024-05-09T20:59:52.543Z,1.55
2024-05-09T21:02:54.499Z,1.63
2024-05-09T21:05:56.470Z,1.50
2024-05-09T21:08:58.852Z,1.33
2024-05-09T21:12:00.924Z,1.67
2024-05-09T21:15:07.208Z,1.17
2024-05-09T21:18:09.183Z,1.53
2024-05-09T21:21:11.357Z,1.33
2024-05-09T21:24:13.323Z,1.20
2024-05-09T21:27:15.360Z,1.40
2024-05-09T21:30:32.322Z,1.10
2024-05-09T21:33:42.437Z,1.40
2024-05-09T21:36:44.495Z,1.30
2024-05-09T21:39:46.501Z,1.50
2024-05-09T21:42:49.109Z,1.70
2024-05-09T21:45:51.062Z,1.40
2024-05-09T21:48:53.774Z,1.50
2024-05-09T21:51:55.792Z,1.20
2024-05-09T21:54:57.877Z,1.60
2024-05-09T21:57:59.899Z,1.33
2024-05-09T22:01:02.052Z,1.52
2024-05-09T22:04:04.422Z,1.33
2024-05-09T22:07:07.088Z,1.60
2024-05-09T22:10:19.579Z,1.38
2024-05-09T22:13:24.959Z,1.65
2024-05-09T22:16:27.004Z,1.50
2024-05-09T22:19:30.063Z,1.40
2024-05-09T22:22:31.953Z,1.63
2024-05-09T22:25:34.177Z,1.50
2024-05-09T22:28:36.251Z,1.38
2024-05-09T22:31:38.221Z,1.60
2024-05-09T22:34:40.229Z,1.73
2024-05-09T22:37:42.136Z,1.60
2024-05-09T22:40:48.360Z,1.70
2024-05-09T22:43:51.849Z,1.83
2024-05-09T22:46:53.795Z,1.98
2024-05-09T22:49:55.758Z,1.83
2024-05-09T22:52:57.683Z,1.40
2024-05-09T22:55:59.538Z,1.63
2024-05-09T22:59:01.600Z,1.95
2024-05-09T23:02:07.511Z,1.85
2024-05-09T23:05:09.974Z,1.50
2024-05-09T23:08:12.076Z,1.90
2024-05-09T23:11:14.300Z,1.80
2024-05-09T23:14:16.212Z,1.45
2024-05-09T23:17:18.272Z,1.52
2024-05-09T23:20:29.912Z,2.07
2024-05-09T23:23:38.760Z,1.90
2024-05-09T23:26:44.091Z,2.03
2024-05-09T23:29:47.096Z,2.30
2024-05-09T23:32:49.179Z,2.13
2024-05-09T23:35:55.316Z,2.43
2024-05-09T23:38:57.162Z,2.20
2024-05-09T23:42:02.682Z,2.25
2024-05-09T23:45:04.990Z,2.45
2024-05-09T23:48:07.574Z,2.33
2024-05-09T23:51:09.815Z,2.20
2024-05-09T23:54:11.710Z,2.30
2024-05-09T23:57:13.551Z,2.45
